Time;durP1;ratioP1;P1;durP2;ratioP2;P2;SDS_P1;SDS_P2;PMS_P1;PMS_P2;Temp;Humidity;BMP_temperature;BMP_pressure;BME280_temperature;BME280_humidity;BME280_pressure;Samples;Min_cycle;Max_cycle;Signal;HPM_P1;HPM_P2
2022/03/03 00:00:46;;;;;;;;;;;9.80;99.90;;;;;;5092197;28;19934;-82
2022/03/03 00:03:11;;;;;;;;;;;9.80;99.90;;;;;;5091812;28;19916;-81
2022/03/03 00:05:37;;;;;;;;;;;9.70;99.90;;;;;;5092747;28;19957;-80
2022/03/03 00:08:03;;;;;;;;;;;9.70;99.90;;;;;;5092576;28;20261;-83
2022/03/03 00:10:28;;;;;;;;;;;9.70;99.90;;;;;;5091989;28;20024;-82
2022/03/03 00:12:54;;;;;;;;;;;9.70;99.90;;;;;;5092257;28;19915;-82
2022/03/03 00:15:19;;;;;;;;;;;9.70;99.90;;;;;;5096757;28;19896;-81
2022/03/03 00:17:45;;;;;;;;;;;9.70;99.90;;;;;;5109155;28;19919;-82
2022/03/03 00:20:11;;;;;;;;;;;9.70;99.90;;;;;;5092016;28;20361;-81
2022/03/03 00:22:36;;;;;;;;;;;9.70;99.90;;;;;;5092701;28;20019;-82
2022/03/03 00:25:02;;;;;;;;;;;9.70;99.90;;;;;;5092468;28;20003;-82
2022/03/03 00:27:27;;;;;;;;;;;9.70;99.90;;;;;;5091557;28;20470;-83
2022/03/03 00:29:53;;;;;;;;;;;9.80;99.90;;;;;;5092483;28;19908;-84
2022/03/03 00:32:19;;;;;;;;;;;9.80;99.90;;;;;;5091777;28;19915;-81
2022/03/03 00:34:44;;;;;;;;;;;9.80;99.90;;;;;;5092492;28;19943;-83
2022/03/03 00:37:10;;;;;;;;;;;9.80;99.90;;;;;;5091735;28;19916;-80
2022/03/03 00:39:35;;;;;;;;;;;9.70;99.90;;;;;;5092252;28;19909;-83
2022/03/03 00:42:01;;;;;;;;;;;9.60;99.90;;;;;;5091835;28;20372;-82
2022/03/03 00:44:27;;;;;;;;;;;9.60;99.90;;;;;;5092712;28;19959;-82
2022/03/03 00:46:52;;;;;;;;;;;9.50;99.90;;;;;;5096789;28;19912;-81
2022/03/03 00:49:18;;;;;;;;;;;9.50;99.90;;;;;;5096230;28;19995;-79
2022/03/03 00:51:44;;;;;;;;;;;9.40;99.90;;;;;;5096494;28;19908;-79
2022/03/03 00:54:09;;;;;;;;;;;9.30;99.90;;;;;;5094998;28;20018;-77
2022/03/03 00:56:35;;;;;;;;;;;9.30;99.90;;;;;;5096142;28;19920;-79
2022/03/03 00:59:01;;;;;;;;;;;9.20;99.90;;;;;;5096470;28;20380;-79
2022/03/03 01:01:26;;;;;;;;;;;9.10;99.90;;;;;;5095879;28;19994;-79
2022/03/03 01:03:52;;;;;;;;;;;9.10;99.90;;;;;;5095137;28;19916;-80
2022/03/03 01:06:17;;;;;;;;;;;9.00;99.90;;;;;;5095921;28;20310;-79
2022/03/03 01:08:43;;;;;;;;;;;9.00;99.90;;;;;;5096181;28;20307;-79
2022/03/03 01:11:08;;;;;;;;;;;9.00;99.90;;;;;;5096485;28;19915;-79
2022/03/03 01:13:34;;;;;;;;;;;8.90;99.90;;;;;;5095723;28;20019;-80
2022/03/03 01:16:00;;;;;;;;;;;8.90;99.90;;;;;;5096067;28;20448;-79
2022/03/03 01:18:25;;;;;;;;;;;8.90;99.90;;;;;;5095827;28;19999;-80
2022/03/03 01:20:52;;;;;;;;;;;8.80;99.90;;;;;;5096112;28;20284;-79
2022/03/03 01:23:17;;;;;;;;;;;8.80;99.90;;;;;;5095112;28;20411;-79
2022/03/03 01:25:43;;;;;;;;;;;8.80;99.90;;;;;;5096270;28;19912;-79
2022/03/03 01:28:09;;;;;;;;;;;8.90;99.90;;;;;;5096025;28;19908;-80
2022/03/03 01:30:34;;;;;;;;;;;8.90;99.90;;;;;;5095088;28;19919;-79
2022/03/03 01:33:00;;;;;;;;;;;8.90;99.90;;;;;;5099596;28;19961;-79
2022/03/03 01:35:25;;;;;;;;;;;9.00;99.90;;;;;;5111980;28;20384;-79
2022/03/03 01:37:51;;;;;;;;;;;9.00;99.90;;;;;;5094503;28;19914;-79
2022/03/03 01:40:17;;;;;;;;;;;9.00;99.90;;;;;;5127862;27;19915;-79
2022/03/03 01:42:43;;;;;;;;;;;9.00;99.90;;;;;;5095374;28;20359;-80
2022/03/03 01:45:09;;;;;;;;;;;9.00;99.90;;;;;;5095706;28;19912;-79
2022/03/03 01:47:34;;;;;;;;;;;9.00;99.90;;;;;;5094711;28;19908;-79
2022/03/03 01:50:00;;;;;;;;;;;9.00;99.90;;;;;;5095342;28;19950;-80
2022/03/03 01:52:26;;;;;;;;;;;9.00;99.90;;;;;;5094819;28;19998;-80
2022/03/03 01:54:52;;;;;;;;;;;8.90;99.90;;;;;;5094839;28;20426;-80
2022/03/03 01:57:19;;;;;;;;;;;8.90;99.90;;;;;;5093922;28;19963;-79
2022/03/03 01:59:46;;;;;;;;;;;8.90;99.90;;;;;;5095313;28;19961;-80
2022/03/03 02:02:14;;;;;;;;;;;8.90;99.90;;;;;;5094419;28;20449;-78
2022/03/03 02:04:40;;;;;;;;;;;8.90;99.90;;;;;;5094750;28;19952;-79
2022/03/03 02:07:06;;;;;;;;;;;8.90;99.90;;;;;;5095240;28;20003;-80
2022/03/03 02:09:32;;;;;;;;;;;8.90;99.90;;;;;;5093979;28;19918;-80
2022/03/03 02:11:57;;;;;;;;;;;8.90;99.90;;;;;;5093988;28;19917;-79
2022/03/03 02:14:23;;;;;;;;;;;8.80;99.90;;;;;;5093964;28;19908;-79
2022/03/03 02:16:48;;;;;;;;;;;8.80;99.90;;;;;;5094906;28;19950;-79
2022/03/03 02:19:17;;;;;;;;;;;8.80;99.90;;;;;;5095224;28;19995;-80
2022/03/03 02:21:46;;;;;;;;;;;8.70;99.90;;;;;;5095200;28;19912;-79
2022/03/03 02:24:11;;;;;;;;;;;8.70;99.90;;;;;;5094437;28;19940;-80
2022/03/03 02:26:39;;;;;;;;;;;8.60;99.90;;;;;;5093791;28;20732;-79
2022/03/03 02:29:05;;;;;;;;;;;8.60;99.90;;;;;;5094759;28;19908;-80
2022/03/03 02:31:30;;;;;;;;;;;8.50;99.90;;;;;;5093735;28;20057;-79
2022/03/03 02:33:57;;;;;;;;;;;8.50;99.90;;;;;;5094261;28;19915;-79
2022/03/03 02:36:23;;;;;;;;;;;8.40;99.90;;;;;;5093945;28;19912;-79
2022/03/03 02:38:50;;;;;;;;;;;8.40;99.90;;;;;;5094496;28;19915;-79
2022/03/03 02:41:16;;;;;;;;;;;8.30;99.90;;;;;;5094399;28;19908;-79
2022/03/03 02:43:42;;;;;;;;;;;8.30;99.90;;;;;;5093832;28;20007;-80
2022/03/03 02:46:08;;;;;;;;;;;8.20;99.90;;;;;;5094446;28;19912;-80
2022/03/03 02:48:34;;;;;;;;;;;8.20;99.90;;;;;;5093623;28;20007;-79
2022/03/03 02:50:59;;;;;;;;;;;8.10;99.90;;;;;;5107894;28;19908;-81
2022/03/03 02:53:26;;;;;;;;;;;8.00;99.90;;;;;;5096195;28;19912;-79
2022/03/03 02:55:51;;;;;;;;;;;8.00;99.90;;;;;;5094241;28;19908;-79
2022/03/03 02:58:17;;;;;;;;;;;7.90;99.90;;;;;;5093807;28;19964;-79
2022/03/03 03:00:43;;;;;;;;;;;7.90;99.90;;;;;;5093840;28;20380;-80
2022/03/03 03:03:09;;;;;;;;;;;7.90;99.90;;;;;;5094159;28;19912;-80
2022/03/03 03:05:35;;;;;;;;;;;7.90;99.90;;;;;;5093590;28;20379;-80
2022/03/03 03:08:01;;;;;;;;;;;7.90;99.90;;;;;;5094003;28;19908;-80
2022/03/03 03:10:27;;;;;;;;;;;7.90;99.90;;;;;;5093284;28;20342;-79
2022/03/03 03:12:52;;;;;;;;;;;7.90;99.90;;;;;;5093966;28;19912;-80
2022/03/03 03:15:18;;;;;;;;;;;7.90;99.90;;;;;;5093977;28;19998;-79
2022/03/03 03:17:44;;;;;;;;;;;8.00;99.90;;;;;;5093340;28;20308;-79
2022/03/03 03:20:09;;;;;;;;;;;8.00;99.90;;;;;;5093952;28;19908;-79
2022/03/03 03:22:35;;;;;;;;;;;8.00;99.90;;;;;;5092999;28;19934;-79
2022/03/03 03:25:01;;;;;;;;;;;8.00;99.90;;;;;;5093578;28;19912;-79
2022/03/03 03:27:27;;;;;;;;;;;8.00;99.90;;;;;;5093282;28;19998;-79
2022/03/03 03:29:52;;;;;;;;;;;8.00;99.90;;;;;;5093702;28;20331;-79
2022/03/03 03:32:18;;;;;;;;;;;8.10;99.90;;;;;;5093915;28;19908;-79
2022/03/03 03:34:44;;;;;;;;;;;8.10;99.90;;;;;;5093012;28;20373;-80
2022/03/03 03:37:09;;;;;;;;;;;8.10;99.90;;;;;;5093216;28;19931;-80
2022/03/03 03:39:35;;;;;;;;;;;8.10;99.90;;;;;;5092812;28;19931;-79
2022/03/03 03:42:00;;;;;;;;;;;8.10;99.90;;;;;;5093058;28;19951;-79
2022/03/03 03:44:26;;;;;;;;;;;8.10;99.90;;;;;;5092627;28;19972;-79
2022/03/03 03:46:52;;;;;;;;;;;8.10;99.90;;;;;;5092860;28;20397;-80
2022/03/03 03:49:17;;;;;;;;;;;8.10;99.90;;;;;;5093371;28;19908;-80
2022/03/03 03:51:43;;;;;;;;;;;8.10;99.90;;;;;;5093116;28;20520;-79
2022/03/03 03:54:08;;;;;;;;;;;8.00;99.90;;;;;;5093391;28;19915;-79
2022/03/03 03:56:34;;;;;;;;;;;8.00;99.90;;;;;;5092570;28;19920;-78
2022/03/03 03:59:00;;;;;;;;;;;8.00;99.90;;;;;;5093155;28;19912;-79
2022/03/03 04:01:27;;;;;;;;;;;8.00;99.90;;;;;;5092282;28;19908;-79
2022/03/03 04:03:53;;;;;;;;;;;7.90;99.90;;;;;;5093154;28;19916;-79
2022/03/03 04:06:18;;;;;;;;;;;7.90;99.90;;;;;;5093308;28;19912;-79
2022/03/03 04:08:44;;;;;;;;;;;7.80;99.90;;;;;;5099809;28;20088;-79
2022/03/03 04:11:10;;;;;;;;;;;7.70;99.90;;;;;;5092593;28;19995;-79
2022/03/03 04:13:35;;;;;;;;;;;7.60;99.90;;;;;;5092158;28;19908;-79
2022/03/03 04:16:01;;;;;;;;;;;7.60;99.90;;;;;;5092725;28;20417;-79
2022/03/03 04:18:26;;;;;;;;;;;7.50;99.90;;;;;;5091618;28;20438;-76
2022/03/03 04:20:52;;;;;;;;;;;7.40;99.90;;;;;;5092630;28;19912;-79
2022/03/03 04:23:19;;;;;;;;;;;7.40;99.90;;;;;;5092872;28;20062;-79
2022/03/03 04:25:44;;;;;;;;;;;7.30;99.90;;;;;;5092033;28;19959;-79
2022/03/03 04:28:10;;;;;;;;;;;7.30;99.90;;;;;;5092931;28;20391;-79
2022/03/03 04:30:36;;;;;;;;;;;7.20;99.90;;;;;;5092403;28;19909;-79
2022/03/03 04:33:01;;;;;;;;;;;7.20;99.90;;;;;;5093128;28;19908;-79
2022/03/03 04:35:28;;;;;;;;;;;7.10;99.90;;;;;;5092514;28;20365;-77
2022/03/03 04:37:54;;;;;;;;;;;7.00;99.90;;;;;;5092863;28;19908;-79
2022/03/03 04:40:19;;;;;;;;;;;7.00;99.90;;;;;;5093271;28;20303;-79
2022/03/03 04:42:45;;;;;;;;;;;7.00;99.90;;;;;;5091976;28;19912;-79
2022/03/03 04:45:11;;;;;;;;;;;7.00;99.90;;;;;;5092962;28;19912;-82
2022/03/03 04:47:36;;;;;;;;;;;6.90;99.90;;;;;;5092223;28;20333;-80
2022/03/03 04:50:02;;;;;;;;;;;6.90;99.90;;;;;;5092737;28;19957;-80
2022/03/03 04:52:28;;;;;;;;;;;6.80;99.90;;;;;;5092512;28;19912;-78
2022/03/03 04:54:54;;;;;;;;;;;6.80;99.90;;;;;;5092514;28;19908;-81
2022/03/03 04:57:19;;;;;;;;;;;6.80;99.90;;;;;;5092382;28;19927;-80
2022/03/03 04:59:45;;;;;;;;;;;6.80;99.90;;;;;;5091745;28;19909;-80
2022/03/03 05:02:10;;;;;;;;;;;6.80;99.90;;;;;;5092657;28;19957;-80
2022/03/03 05:04:36;;;;;;;;;;;6.80;99.90;;;;;;5092067;28;19912;-80
2022/03/03 05:07:01;;;;;;;;;;;6.80;99.90;;;;;;5092608;28;20280;-80
2022/03/03 05:09:27;;;;;;;;;;;6.70;99.90;;;;;;5092554;28;19908;-80
2022/03/03 05:11:53;;;;;;;;;;;6.70;99.90;;;;;;5091825;28;19991;-80
2022/03/03 05:14:18;;;;;;;;;;;6.70;99.90;;;;;;5092829;28;20418;-80
2022/03/03 05:16:44;;;;;;;;;;;6.70;99.90;;;;;;5092022;28;19915;-80
2022/03/03 05:19:09;;;;;;;;;;;6.70;99.90;;;;;;5092077;28;19908;-80
2022/03/03 05:21:35;;;;;;;;;;;6.70;99.90;;;;;;5091929;28;19915;-80
2022/03/03 05:24:00;;;;;;;;;;;6.70;99.90;;;;;;5092684;28;19966;-80
2022/03/03 05:26:26;;;;;;;;;;;6.70;99.90;;;;;;5125222;28;19916;-80
2022/03/03 05:28:52;;;;;;;;;;;6.70;99.90;;;;;;5090346;28;19923;-80
2022/03/03 05:31:17;;;;;;;;;;;6.70;99.90;;;;;;5093873;28;19908;-80
2022/03/03 05:33:43;;;;;;;;;;;6.60;99.90;;;;;;5094101;28;19909;-80
2022/03/03 05:36:10;;;;;;;;;;;6.60;99.90;;;;;;5095966;28;20422;-80
2022/03/03 05:38:36;;;;;;;;;;;6.60;99.90;;;;;;5095132;28;20113;-80
2022/03/03 05:41:02;;;;;;;;;;;6.50;99.90;;;;;;5095951;28;20028;-80
2022/03/03 05:43:27;;;;;;;;;;;6.50;99.90;;;;;;5094028;28;19919;-80
2022/03/03 05:45:53;;;;;;;;;;;6.40;99.90;;;;;;5095191;28;20002;-80
2022/03/03 05:48:19;;;;;;;;;;;6.40;99.90;;;;;;5095689;28;19908;-80
2022/03/03 05:50:46;;;;;;;;;;;6.40;99.90;;;;;;5093836;28;19912;-80
2022/03/03 05:53:11;;;;;;;;;;;6.40;99.90;;;;;;5096281;28;19915;-79
2022/03/03 05:55:41;;;;;;;;;;;6.40;99.90;;;;;;5102800;28;19909;-80
2022/03/03 05:58:09;;;;;;;;;;;6.30;99.90;;;;;;5095474;28;20015;-80
2022/03/03 06:00:35;;;;;;;;;;;6.30;99.90;;;;;;5094745;28;19962;-79
2022/03/03 06:03:01;;;;;;;;;;;6.30;99.90;;;;;;5095354;28;19951;-80
2022/03/03 06:05:27;;;;;;;;;;;6.20;99.90;;;;;;5095376;28;19966;-80
2022/03/03 06:07:54;;;;;;;;;;;6.20;99.90;;;;;;5094689;28;19915;-80
2022/03/03 06:10:24;;;;;;;;;;;6.20;99.90;;;;;;5095269;28;19909;-80
2022/03/03 06:12:54;;;;;;;;;;;6.20;99.90;;;;;;5094348;28;19908;-79
2022/03/03 06:15:22;;;;;;;;;;;6.20;99.90;;;;;;5095059;28;20257;-80
2022/03/03 06:17:48;;;;;;;;;;;6.30;99.90;;;;;;5094398;28;19915;-80
2022/03/03 06:20:14;;;;;;;;;;;6.30;99.90;;;;;;5094802;28;19909;-81
2022/03/03 06:22:39;;;;;;;;;;;6.30;99.90;;;;;;5094239;28;19912;-80
2022/03/03 06:25:05;;;;;;;;;;;6.20;99.90;;;;;;5093690;28;19913;-80
2022/03/03 06:27:31;;;;;;;;;;;6.20;99.90;;;;;;5094687;28;19981;-80
2022/03/03 06:29:57;;;;;;;;;;;6.20;99.90;;;;;;5093971;28;19998;-80
2022/03/03 06:32:23;;;;;;;;;;;6.10;99.90;;;;;;5094682;28;19912;-80
2022/03/03 06:34:48;;;;;;;;;;;6.10;99.90;;;;;;5094160;28;20003;-80
2022/03/03 06:37:15;;;;;;;;;;;6.10;99.90;;;;;;5094312;28;19915;-80
2022/03/03 06:39:40;;;;;;;;;;;6.00;99.90;;;;;;5094045;28;20265;-80
2022/03/03 06:42:07;;;;;;;;;;;6.00;99.90;;;;;;5094233;28;19915;-80
2022/03/03 06:44:33;;;;;;;;;;;6.00;99.90;;;;;;5094162;28;19937;-79
2022/03/03 06:46:58;;;;;;;;;;;5.90;99.90;;;;;;5094085;28;19919;-81
2022/03/03 06:49:24;;;;;;;;;;;5.90;99.90;;;;;;5093907;28;19908;-80
2022/03/03 06:51:50;;;;;;;;;;;5.90;99.90;;;;;;5093487;28;19908;-81
2022/03/03 06:54:20;;;;;;;;;;;5.90;99.90;;;;;;5094196;28;19916;-81
2022/03/03 06:56:47;;;;;;;;;;;5.90;99.90;;;;;;5093187;28;19927;-80
2022/03/03 06:59:23;;;;;;;;;;;5.90;99.90;;;;;;5094149;28;19912;-80
2022/03/03 07:01:49;;;;;;;;;;;5.90;99.90;;;;;;5093536;28;19908;-80
2022/03/03 07:04:16;;;;;;;;;;;5.80;99.90;;;;;;5093903;28;20014;-80
2022/03/03 07:06:42;;;;;;;;;;;5.90;99.90;;;;;;5093078;28;19916;-80
2022/03/03 07:09:08;;;;;;;;;;;5.90;99.90;;;;;;5100917;28;19930;-80
2022/03/03 07:11:36;;;;;;;;;;;5.90;99.90;;;;;;5097143;28;19931;-80
2022/03/03 07:14:02;;;;;;;;;;;5.90;99.90;;;;;;5093257;28;20137;-80
2022/03/03 07:16:33;;;;;;;;;;;5.90;99.90;;;;;;5092595;28;19908;-80
2022/03/03 07:19:02;;;;;;;;;;;5.90;99.90;;;;;;5093572;28;20415;-80
2022/03/03 07:21:47;;;;;;;;;;;5.80;99.90;;;;;;5093216;28;20011;-80
2022/03/03 07:24:14;;;;;;;;;;;5.80;99.90;;;;;;5092416;28;19916;-81
2022/03/03 07:26:41;;;;;;;;;;;5.80;99.90;;;;;;5093179;28;20018;-78
2022/03/03 07:29:09;;;;;;;;;;;5.80;99.90;;;;;;5093370;28;19908;-80
2022/03/03 07:31:40;;;;;;;;;;;5.80;99.90;;;;;;5093596;28;19908;-82
2022/03/03 07:34:06;;;;;;;;;;;5.80;99.90;;;;;;5093872;28;19908;-81
2022/03/03 07:36:33;;;;;;;;;;;5.70;99.90;;;;;;5126143;27;20020;-81
2022/03/03 07:39:00;;;;;;;;;;;5.80;99.90;;;;;;5092440;28;19920;-81
2022/03/03 07:41:27;;;;;;;;;;;5.80;99.90;;;;;;5093285;28;19908;-82
2022/03/03 07:43:53;;;;;;;;;;;5.80;99.90;;;;;;5125425;27;19923;-81
2022/03/03 07:46:19;;;;;;;;;;;5.70;99.90;;;;;;5093916;28;19912;-81
2022/03/03 07:48:46;;;;;;;;;;;5.70;99.90;;;;;;5093760;28;19996;-81
2022/03/03 07:51:12;;;;;;;;;;;5.70;99.90;;;;;;5093184;28;19923;-81
2022/03/03 07:53:37;;;;;;;;;;;5.60;99.90;;;;;;5092373;28;19998;-81
2022/03/03 07:56:03;;;;;;;;;;;5.60;99.90;;;;;;5092317;28;19958;-81
2022/03/03 07:58:31;;;;;;;;;;;5.70;99.90;;;;;;5093199;28;19920;-81
2022/03/03 08:00:58;;;;;;;;;;;5.70;99.90;;;;;;5092384;28;19947;-81
2022/03/03 08:03:24;;;;;;;;;;;5.70;99.90;;;;;;5092879;28;19912;-82
2022/03/03 08:05:51;;;;;;;;;;;5.70;99.90;;;;;;5092392;28;19919;-81
2022/03/03 08:08:20;;;;;;;;;;;5.70;99.90;;;;;;5125877;27;19908;-81
2022/03/03 08:10:45;;;;;;;;;;;5.70;99.90;;;;;;5091238;28;19930;-81
2022/03/03 08:13:13;;;;;;;;;;;5.80;99.90;;;;;;5091742;28;20415;-81
2022/03/03 08:15:39;;;;;;;;;;;5.80;99.90;;;;;;5092397;28;19908;-81
2022/03/03 08:18:05;;;;;;;;;;;5.80;99.90;;;;;;5091766;28;19916;-81
2022/03/03 08:20:33;;;;;;;;;;;5.90;99.90;;;;;;5091394;28;19908;-81
2022/03/03 08:22:59;;;;;;;;;;;5.90;99.90;;;;;;5092082;28;20333;-81
2022/03/03 08:25:25;;;;;;;;;;;6.00;99.90;;;;;;5104202;28;19912;-81
2022/03/03 08:27:53;;;;;;;;;;;6.10;99.90;;;;;;5092146;28;19908;-81
2022/03/03 08:30:18;;;;;;;;;;;6.10;99.90;;;;;;5092931;28;19908;-81
2022/03/03 08:32:49;;;;;;;;;;;6.20;99.90;;;;;;5092482;28;19908;-77
2022/03/03 08:35:19;;;;;;;;;;;6.20;99.90;;;;;;5092615;28;19916;-81
2022/03/03 08:37:50;;;;;;;;;;;6.30;99.90;;;;;;5092298;28;19908;-77
2022/03/03 08:40:18;;;;;;;;;;;6.40;99.90;;;;;;5092544;28;19995;-80
2022/03/03 08:42:45;;;;;;;;;;;6.50;99.90;;;;;;5090964;28;20268;-77
2022/03/03 08:45:12;;;;;;;;;;;6.60;99.90;;;;;;5092597;28;20002;-81
2022/03/03 08:47:39;;;;;;;;;;;6.70;99.90;;;;;;5092328;28;20277;-80
2022/03/03 08:50:11;;;;;;;;;;;6.80;99.90;;;;;;5091721;28;19962;-78
2022/03/03 08:52:38;;;;;;;;;;;7.00;99.90;;;;;;5092223;28;19969;-78
2022/03/03 08:55:05;;;;;;;;;;;7.00;99.90;;;;;;5091505;28;19943;-79
2022/03/03 08:57:30;;;;;;;;;;;7.10;99.90;;;;;;5090953;28;19970;-79
2022/03/03 08:59:56;;;;;;;;;;;7.20;99.90;;;;;;5091637;28;20362;-78
2022/03/03 09:02:21;;;;;;;;;;;7.30;99.90;;;;;;5092327;28;19912;-78
2022/03/03 09:04:47;;;;;;;;;;;7.30;99.90;;;;;;5092850;28;19912;-78
2022/03/03 09:07:14;;;;;;;;;;;7.40;99.90;;;;;;5095802;28;19912;-80
2022/03/03 09:09:40;;;;;;;;;;;7.40;99.90;;;;;;5096013;28;19916;-80
2022/03/03 09:12:06;;;;;;;;;;;7.50;99.90;;;;;;5095309;28;19930;-80
2022/03/03 09:14:31;;;;;;;;;;;7.50;99.90;;;;;;5096579;28;19908;-80
2022/03/03 09:16:57;;;;;;;;;;;7.50;99.90;;;;;;5095385;28;20352;-80
2022/03/03 09:19:22;;;;;;;;;;;7.60;99.90;;;;;;5096065;28;19912;-79
2022/03/03 09:21:48;;;;;;;;;;;7.70;99.90;;;;;;5095862;28;19923;-78
2022/03/03 09:24:14;;;;;;;;;;;7.60;99.90;;;;;;5095530;28;20337;-79
2022/03/03 09:26:39;;;;;;;;;;;7.60;99.90;;;;;;5095930;28;20277;-79
2022/03/03 09:29:05;;;;;;;;;;;7.60;99.90;;;;;;5095201;28;19908;-78
2022/03/03 09:31:31;;;;;;;;;;;7.60;99.90;;;;;;5094600;28;20003;-78
2022/03/03 09:33:56;;;;;;;;;;;7.70;99.90;;;;;;5095231;28;19908;-78
2022/03/03 09:36:22;;;;;;;;;;;7.70;99.90;;;;;;5095745;28;19918;-78
2022/03/03 09:38:47;;;;;;;;;;;7.70;99.90;;;;;;5097973;28;19908;-78
2022/03/03 09:41:13;;;;;;;;;;;7.70;99.90;;;;;;5100553;28;19961;-79
2022/03/03 09:43:40;;;;;;;;;;;7.80;99.90;;;;;;5095652;28;20013;-79
2022/03/03 09:46:05;;;;;;;;;;;7.90;99.90;;;;;;5095380;28;19913;-78
2022/03/03 09:48:32;;;;;;;;;;;8.00;99.90;;;;;;5094051;28;19931;-79
2022/03/03 09:50:57;;;;;;;;;;;8.10;99.90;;;;;;5094449;28;19912;-78
2022/03/03 09:53:23;;;;;;;;;;;8.20;99.90;;;;;;5095682;28;19919;-79
2022/03/03 09:55:49;;;;;;;;;;;8.30;99.90;;;;;;5095669;28;19944;-77
2022/03/03 09:58:15;;;;;;;;;;;8.40;99.90;;;;;;5095098;28;19926;-78
2022/03/03 10:00:41;;;;;;;;;;;8.40;99.90;;;;;;5095351;28;20003;-79
2022/03/03 10:03:10;;;;;;;;;;;8.50;99.90;;;;;;5094820;28;19920;-79
2022/03/03 10:05:37;;;;;;;;;;;8.50;99.90;;;;;;5095160;28;19966;-80
2022/03/03 10:08:07;;;;;;;;;;;8.50;99.90;;;;;;5094585;28;20415;-79
2022/03/03 10:10:34;;;;;;;;;;;8.50;99.90;;;;;;5095192;28;19912;-79
2022/03/03 10:13:00;;;;;;;;;;;8.50;99.90;;;;;;5094301;28;19908;-79
2022/03/03 10:15:29;;;;;;;;;;;8.40;99.90;;;;;;5095131;28;19969;-79
2022/03/03 10:18:14;;;;;;;;;;;8.50;99.90;;;;;;5093507;28;19943;-79
2022/03/03 10:20:49;;;;;;;;;;;8.50;99.90;;;;;;5093751;28;19908;-79
2022/03/03 10:23:14;;;;;;;;;;;8.60;99.90;;;;;;5094131;28;19918;-79
2022/03/03 10:25:42;;;;;;;;;;;8.60;99.90;;;;;;5094662;28;19999;-79
2022/03/03 10:28:13;;;;;;;;;;;8.70;99.90;;;;;;5094104;28;19915;-79
2022/03/03 10:30:58;;;;;;;;;;;8.60;99.90;;;;;;5094275;28;19955;-79
2022/03/03 10:33:25;;;;;;;;;;;8.60;99.90;;;;;;5094154;28;19915;-79
2022/03/03 10:36:06;;;;;;;;;;;8.70;99.90;;;;;;5094477;28;20345;-79
2022/03/03 10:38:33;;;;;;;;;;;8.70;99.90;;;;;;5094414;28;19908;-79
2022/03/03 10:40:59;;;;;;;;;;;8.80;99.90;;;;;;5093498;28;19962;-79
2022/03/03 10:43:25;;;;;;;;;;;8.80;99.90;;;;;;5094342;28;19912;-79
2022/03/03 10:45:54;;;;;;;;;;;8.80;99.90;;;;;;5094575;28;19919;-79
2022/03/03 10:48:23;;;;;;;;;;;8.70;99.90;;;;;;5094113;28;19908;-79
2022/03/03 10:50:49;;;;;;;;;;;8.80;99.90;;;;;;5094498;28;19951;-79
2022/03/03 10:53:19;;;;;;;;;;;8.80;99.90;;;;;;5093792;28;20404;-79
2022/03/03 10:56:07;;;;;;;;;;;8.80;99.90;;;;;;5098482;28;19965;-79
2022/03/03 10:58:48;;;;;;;;;;;8.70;99.90;;;;;;5094384;28;20034;-79
2022/03/03 11:01:14;;;;;;;;;;;8.70;99.90;;;;;;5094018;28;19916;-79
2022/03/03 11:03:41;;;;;;;;;;;8.80;99.90;;;;;;5094204;28;19912;-80
2022/03/03 11:06:06;;;;;;;;;;;8.90;99.90;;;;;;5093574;28;19912;-79
2022/03/03 11:08:32;;;;;;;;;;;8.90;99.90;;;;;;5093905;28;20269;-79
2022/03/03 11:10:58;;;;;;;;;;;8.80;99.90;;;;;;5093227;28;20406;-79
2022/03/03 11:13:24;;;;;;;;;;;8.90;99.90;;;;;;5093971;28;19915;-79
2022/03/03 11:15:52;;;;;;;;;;;8.90;99.90;;;;;;5093790;28;19914;-79
2022/03/03 11:18:18;;;;;;;;;;;9.00;99.90;;;;;;5093021;28;20007;-78
2022/03/03 11:20:50;;;;;;;;;;;9.00;99.90;;;;;;5093809;28;19993;-78
2022/03/03 11:23:16;;;;;;;;;;;9.00;99.90;;;;;;5093059;28;19908;-80
2022/03/03 11:25:41;;;;;;;;;;;9.00;99.90;;;;;;5092321;28;19912;-80
2022/03/03 11:28:08;;;;;;;;;;;9.10;99.90;;;;;;5093286;28;19954;-80
2022/03/03 11:30:34;;;;;;;;;;;9.10;99.90;;;;;;5093635;28;19918;-80
2022/03/03 11:33:18;;;;;;;;;;;9.20;99.90;;;;;;5093222;28;20418;-79
2022/03/03 11:36:08;;;;;;;;;;;9.30;99.90;;;;;;5093444;28;20395;-79
2022/03/03 11:38:47;;;;;;;;;;;9.30;99.90;;;;;;5094917;28;19908;-78
2022/03/03 11:41:13;;;;;;;;;;;9.30;99.90;;;;;;5092581;28;20284;-78
2022/03/03 11:43:47;;;;;;;;;;;9.50;99.90;;;;;;5093579;28;20277;-79
2022/03/03 11:46:12;;;;;;;;;;;9.50;99.90;;;;;;5092581;28;19923;-78
2022/03/03 11:48:39;;;;;;;;;;;9.50;99.90;;;;;;5093174;28;19965;-78
2022/03/03 11:51:23;;;;;;;;;;;9.50;99.90;;;;;;5092471;28;19908;-78
2022/03/03 11:53:49;;;;;;;;;;;9.50;99.90;;;;;;5093256;28;19912;-78
2022/03/03 11:56:15;;;;;;;;;;;9.60;99.90;;;;;;5092593;28;20318;-80
2022/03/03 11:58:41;;;;;;;;;;;9.50;99.90;;;;;;5093200;28;19921;-80
2022/03/03 12:01:13;;;;;;;;;;;9.50;99.90;;;;;;5092305;28;19992;-80
2022/03/03 12:03:57;;;;;;;;;;;9.50;99.90;;;;;;5093073;28;19912;-79
2022/03/03 12:06:34;;;;;;;;;;;9.40;99.90;;;;;;5092130;28;20409;-80
2022/03/03 12:09:14;;;;;;;;;;;9.50;99.90;;;;;;5092560;28;19908;-79
2022/03/03 12:11:40;;;;;;;;;;;9.60;99.90;;;;;;5091742;28;19915;-79
2022/03/03 12:14:25;;;;;;;;;;;9.60;99.90;;;;;;5092787;28;19908;-79
2022/03/03 12:16:51;;;;;;;;;;;9.60;99.90;;;;;;5092999;28;19909;-79
2022/03/03 12:19:16;;;;;;;;;;;9.60;99.90;;;;;;5092183;28;19915;-80
2022/03/03 12:21:48;;;;;;;;;;;9.60;99.90;;;;;;5093005;28;19970;-80
2022/03/03 12:24:13;;;;;;;;;;;9.50;99.90;;;;;;5092047;28;19926;-79
2022/03/03 12:26:51;;;;;;;;;;;9.60;99.90;;;;;;5092800;28;19912;-79
2022/03/03 12:29:34;;;;;;;;;;;9.60;99.90;;;;;;5092193;28;19961;-80
2022/03/03 12:32:18;;;;;;;;;;;9.60;99.90;;;;;;5092725;28;19908;-80
2022/03/03 12:34:45;;;;;;;;;;;9.60;99.90;;;;;;5092675;28;19933;-80
2022/03/03 12:37:11;;;;;;;;;;;9.70;99.90;;;;;;5092070;28;19909;-79
2022/03/03 12:39:36;;;;;;;;;;;9.70;99.90;;;;;;5093088;28;19915;-80
2022/03/03 12:42:02;;;;;;;;;;;9.80;99.90;;;;;;5096218;28;20006;-77
2022/03/03 12:44:34;;;;;;;;;;;9.80;99.90;;;;;;5096505;28;20292;-80
2022/03/03 12:46:59;;;;;;;;;;;9.80;99.90;;;;;;5096576;28;19912;-80
2022/03/03 12:49:25;;;;;;;;;;;9.80;99.90;;;;;;5098967;28;19927;-79
2022/03/03 12:51:50;;;;;;;;;;;9.80;99.90;;;;;;5103356;28;19934;-79
2022/03/03 12:54:17;;;;;;;;;;;9.70;99.90;;;;;;5096298;28;20295;-80
2022/03/03 12:56:42;;;;;;;;;;;9.80;99.90;;;;;;5096724;28;19916;-80
2022/03/03 12:59:08;;;;;;;;;;;9.80;99.90;;;;;;5095878;28;19908;-80
2022/03/03 13:01:35;;;;;;;;;;;9.80;99.90;;;;;;5096494;28;19908;-80
2022/03/03 13:04:03;;;;;;;;;;;9.80;99.90;;;;;;5096345;28;19916;-80
2022/03/03 13:06:30;;;;;;;;;;;9.80;99.90;;;;;;5096351;28;19991;-80
2022/03/03 13:08:59;;;;;;;;;;;9.90;99.90;;;;;;5096399;28;19908;-80
2022/03/03 13:11:25;;;;;;;;;;;9.90;99.90;;;;;;5095459;28;19904;-82
2022/03/03 13:14:05;;;;;;;;;;;10.00;99.90;;;;;;5096495;28;19915;-81
2022/03/03 13:16:34;;;;;;;;;;;10.00;99.90;;;;;;5096293;28;19916;-80
2022/03/03 13:19:01;;;;;;;;;;;10.00;99.90;;;;;;5095567;28;20414;-80
2022/03/03 13:21:28;;;;;;;;;;;10.10;99.90;;;;;;5094998;28;20357;-79
2022/03/03 13:23:57;;;;;;;;;;;10.10;99.90;;;;;;5095795;28;19912;-80
2022/03/03 13:26:24;;;;;;;;;;;10.10;99.90;;;;;;5095454;28;19923;-81
2022/03/03 13:28:56;;;;;;;;;;;10.10;99.90;;;;;;5095933;28;19944;-80
2022/03/03 13:31:23;;;;;;;;;;;10.10;99.90;;;;;;5095123;28;19915;-80
2022/03/03 13:33:59;;;;;;;;;;;10.00;99.90;;;;;;5095644;28;20376;-80
2022/03/03 13:36:26;;;;;;;;;;;10.00;99.90;;;;;;5095168;28;19908;-79
2022/03/03 13:38:54;;;;;;;;;;;10.00;99.90;;;;;;5095648;28;19912;-80
2022/03/03 13:41:20;;;;;;;;;;;10.10;99.90;;;;;;5094799;28;20358;-80
2022/03/03 13:43:46;;;;;;;;;;;10.10;99.90;;;;;;5095522;28;19912;-78
2022/03/03 13:46:26;;;;;;;;;;;10.10;99.90;;;;;;5094973;28;19916;-80
2022/03/03 13:48:51;;;;;;;;;;;10.20;99.90;;;;;;5095533;28;20003;-80
2022/03/03 13:51:17;;;;;;;;;;;10.20;99.90;;;;;;5093590;28;20341;-80
2022/03/03 13:53:54;;;;;;;;;;;10.30;99.90;;;;;;5095556;28;20264;-80
2022/03/03 13:56:25;;;;;;;;;;;10.30;99.90;;;;;;5097363;28;19920;-80
2022/03/03 13:59:02;;;;;;;;;;;10.30;99.90;;;;;;5095449;28;20373;-80
2022/03/03 14:01:28;;;;;;;;;;;10.30;99.90;;;;;;5100494;28;20083;-80
2022/03/03 14:03:53;;;;;;;;;;;10.30;99.90;;;;;;5100686;28;19912;-80
2022/03/03 14:06:20;;;;;;;;;;;10.30;99.90;;;;;;5095170;28;19912;-80
2022/03/03 14:08:46;;;;;;;;;;;10.30;99.90;;;;;;5095113;28;19915;-80
2022/03/03 14:11:24;;;;;;;;;;;10.20;99.90;;;;;;5094508;28;19908;-79
2022/03/03 14:13:51;;;;;;;;;;;10.20;99.90;;;;;;5102878;28;19914;-79
2022/03/03 14:16:17;;;;;;;;;;;10.20;99.90;;;;;;5114844;28;19915;-80
2022/03/03 14:18:43;;;;;;;;;;;10.30;99.90;;;;;;5095487;28;19919;-80
2022/03/03 14:21:08;;;;;;;;;;;10.30;99.90;;;;;;5094402;28;20289;-79
2022/03/03 14:23:34;;;;;;;;;;;10.30;99.90;;;;;;5094526;28;19912;-80
2022/03/03 14:26:01;;;;;;;;;;;10.40;99.90;;;;;;5094847;28;19919;-80
2022/03/03 14:28:27;;;;;;;;;;;10.40;99.90;;;;;;5094215;28;19914;-80